sensor_id;sensor_type;location;lat;lon;timestamp;pressure;altitude;pressure_sealevel;temperature
33267;BMP180;19638;49.080;11.896;2024-01-15T00:01:42;94833.00;;;-3.10
33267;BMP180;19638;49.080;11.896;2024-01-15T00:05:46;94823.00;;;-2.90
33267;BMP180;19638;49.080;11.896;2024-01-15T00:09:51;94823.00;;;-2.70
33267;BMP180;19638;49.080;11.896;2024-01-15T00:13:54;94826.00;;;-2.50
33267;BMP180;19638;49.080;11.896;2024-01-15T00:17:57;94813.00;;;-2.50
33267;BMP180;19638;49.080;11.896;2024-01-15T00:22:00;94822.00;;;-2.50
33267;BMP180;19638;49.080;11.896;2024-01-15T00:26:05;94831.00;;;-2.50
33267;BMP180;19638;49.080;11.896;2024-01-15T00:30:12;94828.00;;;-2.50
33267;BMP180;19638;49.080;11.896;2024-01-15T00:34:15;94833.00;;;-2.40
33267;BMP180;19638;49.080;11.896;2024-01-15T00:38:18;94840.00;;;-2.40
33267;BMP180;19638;49.080;11.896;2024-01-15T00:42:23;94848.00;;;-2.40
33267;BMP180;19638;49.080;11.896;2024-01-15T00:46:26;94832.00;;;-2.40
33267;BMP180;19638;49.080;11.896;2024-01-15T00:50:29;94818.00;;;-2.40
33267;BMP180;19638;49.080;11.896;2024-01-15T00:54:32;94805.00;;;-2.50
33267;BMP180;19638;49.080;11.896;2024-01-15T00:58:37;94816.00;;;-2.50
33267;BMP180;19638;49.080;11.896;2024-01-15T01:02:40;94804.00;;;-2.50
33267;BMP180;19638;49.080;11.896;2024-01-15T01:06:43;94808.00;;;-2.40
33267;BMP180;19638;49.080;11.896;2024-01-15T01:10:47;94825.00;;;-2.40
33267;BMP180;19638;49.080;11.896;2024-01-15T01:14:51;94832.00;;;-2.40
33267;BMP180;19638;49.080;11.896;2024-01-15T01:18:56;94834.00;;;-2.40
33267;BMP180;19638;49.080;11.896;2024-01-15T01:22:59;94834.00;;;-2.40
33267;BMP180;19638;49.080;11.896;2024-01-15T01:27:03;94836.00;;;-2.40
33267;BMP180;19638;49.080;11.896;2024-01-15T01:31:08;94834.00;;;-2.30
33267;BMP180;19638;49.080;11.896;2024-01-15T01:35:12;94836.00;;;-2.30
33267;BMP180;19638;49.080;11.896;2024-01-15T01:39:16;94853.00;;;-2.20
33267;BMP180;19638;49.080;11.896;2024-01-15T01:43:19;94848.00;;;-2.30
33267;BMP180;19638;49.080;11.896;2024-01-15T01:47:23;94850.00;;;-2.30
33267;BMP180;19638;49.080;11.896;2024-01-15T01:51:28;94846.00;;;-2.30
33267;BMP180;19638;49.080;11.896;2024-01-15T01:55:32;94866.00;;;-2.20
33267;BMP180;19638;49.080;11.896;2024-01-15T01:59:36;94854.00;;;-2.20
33267;BMP180;19638;49.080;11.896;2024-01-15T02:03:41;94862.00;;;-2.20
33267;BMP180;19638;49.080;11.896;2024-01-15T02:07:45;94863.00;;;-2.20
33267;BMP180;19638;49.080;11.896;2024-01-15T02:11:50;94847.00;;;-2.20
33267;BMP180;19638;49.080;11.896;2024-01-15T02:15:53;94851.00;;;-2.20
33267;BMP180;19638;49.080;11.896;2024-01-15T02:19:58;94846.00;;;-2.10
33267;BMP180;19638;49.080;11.896;2024-01-15T02:24:02;94855.00;;;-2.10
33267;BMP180;19638;49.080;11.896;2024-01-15T02:28:06;94856.00;;;-2.00
33267;BMP180;19638;49.080;11.896;2024-01-15T02:32:10;94854.00;;;-2.00
33267;BMP180;19638;49.080;11.896;2024-01-15T02:36:16;94847.00;;;-2.00
33267;BMP180;19638;49.080;11.896;2024-01-15T02:40:21;94866.00;;;-2.00
33267;BMP180;19638;49.080;11.896;2024-01-15T02:44:24;94867.00;;;-1.90
33267;BMP180;19638;49.080;11.896;2024-01-15T02:48:27;94863.00;;;-1.90
33267;BMP180;19638;49.080;11.896;2024-01-15T02:52:30;94868.00;;;-1.90
33267;BMP180;19638;49.080;11.896;2024-01-15T02:56:35;94863.00;;;-1.80
33267;BMP180;19638;49.080;11.896;2024-01-15T03:05:04;94871.00;;;-1.70
33267;BMP180;19638;49.080;11.896;2024-01-15T03:09:07;94862.00;;;-1.70
33267;BMP180;19638;49.080;11.896;2024-01-15T03:13:12;94865.00;;;-1.70
33267;BMP180;19638;49.080;11.896;2024-01-15T03:17:15;94865.00;;;-1.60
33267;BMP180;19638;49.080;11.896;2024-01-15T03:21:18;94865.00;;;-1.70
33267;BMP180;19638;49.080;11.896;2024-01-15T03:25:21;94875.00;;;-1.60
33267;BMP180;19638;49.080;11.896;2024-01-15T03:29:25;94872.00;;;-1.60
33267;BMP180;19638;49.080;11.896;2024-01-15T03:33:28;94868.00;;;-1.60
33267;BMP180;19638;49.080;11.896;2024-01-15T03:37:32;94869.00;;;-1.60
33267;BMP180;19638;49.080;11.896;2024-01-15T03:41:35;94866.00;;;-1.60
33267;BMP180;19638;49.080;11.896;2024-01-15T03:45:39;94865.00;;;-1.50
33267;BMP180;19638;49.080;11.896;2024-01-15T03:49:42;94866.00;;;-1.50
33267;BMP180;19638;49.080;11.896;2024-01-15T03:53:46;94865.00;;;-1.50
33267;BMP180;19638;49.080;11.896;2024-01-15T03:57:49;94858.00;;;-1.50
33267;BMP180;19638;49.080;11.896;2024-01-15T04:01:53;94855.00;;;-1.50
33267;BMP180;19638;49.080;11.896;2024-01-15T04:05:56;94846.00;;;-1.40
33267;BMP180;19638;49.080;11.896;2024-01-15T04:10:00;94857.00;;;-1.40
33267;BMP180;19638;49.080;11.896;2024-01-15T04:14:03;94853.00;;;-1.40
33267;BMP180;19638;49.080;11.896;2024-01-15T04:18:08;94853.00;;;-1.40
33267;BMP180;19638;49.080;11.896;2024-01-15T04:22:11;94856.00;;;-1.40
33267;BMP180;19638;49.080;11.896;2024-01-15T04:26:14;94853.00;;;-1.40
33267;BMP180;19638;49.080;11.896;2024-01-15T04:30:17;94852.00;;;-1.40
33267;BMP180;19638;49.080;11.896;2024-01-15T04:34:22;94849.00;;;-1.40
33267;BMP180;19638;49.080;11.896;2024-01-15T04:38:25;94850.00;;;-1.30
33267;BMP180;19638;49.080;11.896;2024-01-15T04:42:28;94859.00;;;-1.30
33267;BMP180;19638;49.080;11.896;2024-01-15T04:46:32;94860.00;;;-1.20
33267;BMP180;19638;49.080;11.896;2024-01-15T04:50:36;94852.00;;;-1.20
33267;BMP180;19638;49.080;11.896;2024-01-15T04:54:39;94853.00;;;-1.10
33267;BMP180;19638;49.080;11.896;2024-01-15T04:58:42;94845.00;;;-1.10
33267;BMP180;19638;49.080;11.896;2024-01-15T05:02:45;94842.00;;;-1.00
33267;BMP180;19638;49.080;11.896;2024-01-15T05:06:50;94839.00;;;-1.00
33267;BMP180;19638;49.080;11.896;2024-01-15T05:10:53;94835.00;;;-0.90
33267;BMP180;19638;49.080;11.896;2024-01-15T05:14:56;94826.00;;;-0.90
33267;BMP180;19638;49.080;11.896;2024-01-15T05:18:59;94829.00;;;-0.90
33267;BMP180;19638;49.080;11.896;2024-01-15T05:23:04;94827.00;;;-0.80
33267;BMP180;19638;49.080;11.896;2024-01-15T05:27:07;94834.00;;;-0.80
33267;BMP180;19638;49.080;11.896;2024-01-15T05:31:10;94834.00;;;-0.80
33267;BMP180;19638;49.080;11.896;2024-01-15T05:35:14;94840.00;;;-0.80
33267;BMP180;19638;49.080;11.896;2024-01-15T05:39:18;94833.00;;;-0.80
33267;BMP180;19638;49.080;11.896;2024-01-15T05:43:24;94833.00;;;-0.80
33267;BMP180;19638;49.080;11.896;2024-01-15T05:47:27;94833.00;;;-0.70
33267;BMP180;19638;49.080;11.896;2024-01-15T05:51:31;94833.00;;;-0.70
33267;BMP180;19638;49.080;11.896;2024-01-15T05:55:36;94832.00;;;-0.60
33267;BMP180;19638;49.080;11.896;2024-01-15T05:59:40;94830.00;;;-0.60
33267;BMP180;19638;49.080;11.896;2024-01-15T06:03:44;94831.00;;;-0.60
33267;BMP180;19638;49.080;11.896;2024-01-15T06:07:47;94829.00;;;-0.50
33267;BMP180;19638;49.080;11.896;2024-01-15T06:11:51;94809.00;;;-0.50
33267;BMP180;19638;49.080;11.896;2024-01-15T06:15:54;94817.00;;;-0.40
33267;BMP180;19638;49.080;11.896;2024-01-15T06:19:59;94819.00;;;-0.40
33267;BMP180;19638;49.080;11.896;2024-01-15T06:24:02;94812.00;;;-0.40
33267;BMP180;19638;49.080;11.896;2024-01-15T06:28:07;94820.00;;;-0.40
33267;BMP180;19638;49.080;11.896;2024-01-15T06:32:11;94821.00;;;-0.40
33267;BMP180;19638;49.080;11.896;2024-01-15T06:36:14;94822.00;;;-0.30
33267;BMP180;19638;49.080;11.896;2024-01-15T06:40:18;94822.00;;;-0.30
33267;BMP180;19638;49.080;11.896;2024-01-15T06:44:23;94819.00;;;-0.20
33267;BMP180;19638;49.080;11.896;2024-01-15T06:48:26;94814.00;;;-0.20
33267;BMP180;19638;49.080;11.896;2024-01-15T06:52:29;94813.00;;;-0.20
33267;BMP180;19638;49.080;11.896;2024-01-15T06:56:32;94816.00;;;-0.20
33267;BMP180;19638;49.080;11.896;2024-01-15T07:00:37;94820.00;;;-0.10
33267;BMP180;19638;49.080;11.896;2024-01-15T07:04:40;94825.00;;;-0.10
33267;BMP180;19638;49.080;11.896;2024-01-15T07:08:44;94815.00;;;-0.10
33267;BMP180;19638;49.080;11.896;2024-01-15T07:12:47;94811.00;;;-0.10
33267;BMP180;19638;49.080;11.896;2024-01-15T07:16:52;94810.00;;;-0.10
33267;BMP180;19638;49.080;11.896;2024-01-15T07:20:55;94813.00;;;-0.10
33267;BMP180;19638;49.080;11.896;2024-01-15T07:24:58;94805.00;;;0.00
33267;BMP180;19638;49.080;11.896;2024-01-15T07:29:01;94806.00;;;0.00
33267;BMP180;19638;49.080;11.896;2024-01-15T07:33:06;94804.00;;;0.10
33267;BMP180;19638;49.080;11.896;2024-01-15T07:37:10;94811.00;;;0.20
33267;BMP180;19638;49.080;11.896;2024-01-15T07:41:13;94810.00;;;0.20
33267;BMP180;19638;49.080;11.896;2024-01-15T07:45:16;94811.00;;;0.20
33267;BMP180;19638;49.080;11.896;2024-01-15T07:49:21;94811.00;;;0.20
33267;BMP180;19638;49.080;11.896;2024-01-15T07:53:25;94817.00;;;0.30
33267;BMP180;19638;49.080;11.896;2024-01-15T07:57:29;94810.00;;;0.30
33267;BMP180;19638;49.080;11.896;2024-01-15T08:01:32;94812.00;;;0.30
33267;BMP180;19638;49.080;11.896;2024-01-15T08:05:38;94821.00;;;0.30
33267;BMP180;19638;49.080;11.896;2024-01-15T08:09:41;94812.00;;;0.40
33267;BMP180;19638;49.080;11.896;2024-01-15T08:13:44;94819.00;;;0.40
33267;BMP180;19638;49.080;11.896;2024-01-15T08:17:47;94809.00;;;0.50
33267;BMP180;19638;49.080;11.896;2024-01-15T08:21:52;94819.00;;;0.50
33267;BMP180;19638;49.080;11.896;2024-01-15T08:25:55;94811.00;;;0.60
33267;BMP180;19638;49.080;11.896;2024-01-15T08:29:58;94806.00;;;0.70
33267;BMP180;19638;49.080;11.896;2024-01-15T08:34:02;94801.00;;;0.70
33267;BMP180;19638;49.080;11.896;2024-01-15T08:38:09;94802.00;;;0.80
33267;BMP180;19638;49.080;11.896;2024-01-15T08:42:12;94797.00;;;0.90
33267;BMP180;19638;49.080;11.896;2024-01-15T08:46:15;94801.00;;;1.00
33267;BMP180;19638;49.080;11.896;2024-01-15T08:50:18;94801.00;;;1.10
33267;BMP180;19638;49.080;11.896;2024-01-15T08:54:23;94800.00;;;1.20
33267;BMP180;19638;49.080;11.896;2024-01-15T08:58:27;94793.00;;;1.30
33267;BMP180;19638;49.080;11.896;2024-01-15T09:02:30;94794.00;;;1.40
33267;BMP180;19638;49.080;11.896;2024-01-15T09:06:33;94797.00;;;1.40
33267;BMP180;19638;49.080;11.896;2024-01-15T09:10:38;94795.00;;;1.30
33267;BMP180;19638;49.080;11.896;2024-01-15T09:14:41;94807.00;;;1.30
33267;BMP180;19638;49.080;11.896;2024-01-15T09:18:44;94808.00;;;1.20
33267;BMP180;19638;49.080;11.896;2024-01-15T09:22:48;94809.00;;;1.20
33267;BMP180;19638;49.080;11.896;2024-01-15T09:26:53;94812.00;;;1.10
33267;BMP180;19638;49.080;11.896;2024-01-15T09:30:56;94805.00;;;1.00
33267;BMP180;19638;49.080;11.896;2024-01-15T09:35:00;94806.00;;;1.00
33267;BMP180;19638;49.080;11.896;2024-01-15T09:39:03;94801.00;;;1.00
33267;BMP180;19638;49.080;11.896;2024-01-15T09:43:09;94805.00;;;1.00
33267;BMP180;19638;49.080;11.896;2024-01-15T09:47:13;94806.00;;;1.00
33267;BMP180;19638;49.080;11.896;2024-01-15T09:51:18;94812.00;;;1.10
33267;BMP180;19638;49.080;11.896;2024-01-15T09:55:21;94812.00;;;1.10
33267;BMP180;19638;49.080;11.896;2024-01-15T09:59:27;94806.00;;;1.10
33267;BMP180;19638;49.080;11.896;2024-01-15T10:03:30;94800.00;;;1.10
33267;BMP180;19638;49.080;11.896;2024-01-15T10:07:35;94794.00;;;1.10
33267;BMP180;19638;49.080;11.896;2024-01-15T10:11:39;94791.00;;;1.20
33267;BMP180;19638;49.080;11.896;2024-01-15T10:15:45;94785.00;;;1.20
33267;BMP180;19638;49.080;11.896;2024-01-15T10:19:49;94776.00;;;1.30
33267;BMP180;19638;49.080;11.896;2024-01-15T10:23:52;94759.00;;;1.30
33267;BMP180;19638;49.080;11.896;2024-01-15T10:27:59;94773.00;;;1.40
33267;BMP180;19638;49.080;11.896;2024-01-15T10:32:06;94750.00;;;1.40
33267;BMP180;19638;49.080;11.896;2024-01-15T10:36:10;94762.00;;;1.40
33267;BMP180;19638;49.080;11.896;2024-01-15T10:40:14;94752.00;;;1.40
33267;BMP180;19638;49.080;11.896;2024-01-15T10:44:17;94746.00;;;1.50
33267;BMP180;19638;49.080;11.896;2024-01-15T10:48:21;94748.00;;;1.50
33267;BMP180;19638;49.080;11.896;2024-01-15T10:52:25;94742.00;;;1.60
33267;BMP180;19638;49.080;11.896;2024-01-15T10:56:30;94747.00;;;1.60
33267;BMP180;19638;49.080;11.896;2024-01-15T11:00:35;94740.00;;;1.60
33267;BMP180;19638;49.080;11.896;2024-01-15T11:04:41;94740.00;;;1.60
33267;BMP180;19638;49.080;11.896;2024-01-15T11:08:51;94745.00;;;1.80
33267;BMP180;19638;49.080;11.896;2024-01-15T11:12:55;94744.00;;;1.90
33267;BMP180;19638;49.080;11.896;2024-01-15T11:16:58;94752.00;;;1.80
33267;BMP180;19638;49.080;11.896;2024-01-15T11:21:24;94748.00;;;1.70
33267;BMP180;19638;49.080;11.896;2024-01-15T11:25:34;94749.00;;;1.70
33267;BMP180;19638;49.080;11.896;2024-01-15T11:29:39;94744.00;;;1.60
33267;BMP180;19638;49.080;11.896;2024-01-15T11:33:49;94740.00;;;1.50
33267;BMP180;19638;49.080;11.896;2024-01-15T11:37:59;94731.00;;;1.50
33267;BMP180;19638;49.080;11.896;2024-01-15T11:42:04;94737.00;;;1.50
33267;BMP180;19638;49.080;11.896;2024-01-15T11:46:11;94744.00;;;1.50
33267;BMP180;19638;49.080;11.896;2024-01-15T11:50:14;94734.00;;;1.50
33267;BMP180;19638;49.080;11.896;2024-01-15T11:54:21;94731.00;;;1.50
33267;BMP180;19638;49.080;11.896;2024-01-15T11:58:26;94740.00;;;1.60
33267;BMP180;19638;49.080;11.896;2024-01-15T12:02:30;94741.00;;;1.60
33267;BMP180;19638;49.080;11.896;2024-01-15T12:06:34;94736.00;;;1.60
33267;BMP180;19638;49.080;11.896;2024-01-15T12:10:40;94728.00;;;1.60
33267;BMP180;19638;49.080;11.896;2024-01-15T12:14:44;94718.00;;;1.70
33267;BMP180;19638;49.080;11.896;2024-01-15T12:18:47;94710.00;;;1.70
33267;BMP180;19638;49.080;11.896;2024-01-15T12:22:50;94706.00;;;1.70
33267;BMP180;19638;49.080;11.896;2024-01-15T12:27:05;94704.00;;;1.70
33267;BMP180;19638;49.080;11.896;2024-01-15T12:31:08;94695.00;;;1.70
33267;BMP180;19638;49.080;11.896;2024-01-15T12:35:11;94690.00;;;1.60
33267;BMP180;19638;49.080;11.896;2024-01-15T12:39:14;94690.00;;;1.70
33267;BMP180;19638;49.080;11.896;2024-01-15T12:43:19;94694.00;;;1.60
33267;BMP180;19638;49.080;11.896;2024-01-15T12:47:23;94684.00;;;1.60
33267;BMP180;19638;49.080;11.896;2024-01-15T12:51:26;94694.00;;;1.60
33267;BMP180;19638;49.080;11.896;2024-01-15T12:55:29;94681.00;;;1.60
33267;BMP180;19638;49.080;11.896;2024-01-15T12:59:34;94694.00;;;1.60
33267;BMP180;19638;49.080;11.896;2024-01-15T13:03:37;94693.00;;;1.70
33267;BMP180;19638;49.080;11.896;2024-01-15T13:07:40;94688.00;;;1.60
33267;BMP180;19638;49.080;11.896;2024-01-15T13:11:44;94678.00;;;1.60
33267;BMP180;19638;49.080;11.896;2024-01-15T13:15:49;94681.00;;;1.60
33267;BMP180;19638;49.080;11.896;2024-01-15T13:19:52;94688.00;;;1.50
33267;BMP180;19638;49.080;11.896;2024-01-15T13:23:56;94691.00;;;1.60
33267;BMP180;19638;49.080;11.896;2024-01-15T13:27:59;94708.00;;;1.70
33267;BMP180;19638;49.080;11.896;2024-01-15T13:32:04;94700.00;;;1.80
33267;BMP180;19638;49.080;11.896;2024-01-15T13:36:08;94697.00;;;1.80
33267;BMP180;19638;49.080;11.896;2024-01-15T13:40:12;94698.00;;;1.80
33267;BMP180;19638;49.080;11.896;2024-01-15T13:44:19;94702.00;;;1.70
33267;BMP180;19638;49.080;11.896;2024-01-15T13:48:25;94709.00;;;1.70
33267;BMP180;19638;49.080;11.896;2024-01-15T13:52:28;94701.00;;;1.70
33267;BMP180;19638;49.080;11.896;2024-01-15T13:56:31;94698.00;;;1.60
33267;BMP180;19638;49.080;11.896;2024-01-15T14:00:35;94692.00;;;1.60
33267;BMP180;19638;49.080;11.896;2024-01-15T14:04:40;94689.00;;;1.50
33267;BMP180;19638;49.080;11.896;2024-01-15T14:08:43;94702.00;;;1.50
33267;BMP180;19638;49.080;11.896;2024-01-15T14:12:46;94710.00;;;1.40
33267;BMP180;19638;49.080;11.896;2024-01-15T14:16:50;94708.00;;;1.40
33267;BMP180;19638;49.080;11.896;2024-01-15T14:20:55;94715.00;;;1.30
33267;BMP180;19638;49.080;11.896;2024-01-15T14:24:58;94721.00;;;1.30
33267;BMP180;19638;49.080;11.896;2024-01-15T14:29:01;94712.00;;;1.20
33267;BMP180;19638;49.080;11.896;2024-01-15T14:33:06;94716.00;;;1.20
33267;BMP180;19638;49.080;11.896;2024-01-15T14:37:11;94711.00;;;1.20
33267;BMP180;19638;49.080;11.896;2024-01-15T14:41:14;94719.00;;;1.20
33267;BMP180;19638;49.080;11.896;2024-01-15T14:45:18;94712.00;;;1.20
33267;BMP180;19638;49.080;11.896;2024-01-15T14:49:22;94711.00;;;1.20
33267;BMP180;19638;49.080;11.896;2024-01-15T14:53:26;94712.00;;;1.20
33267;BMP180;19638;49.080;11.896;2024-01-15T14:57:29;94717.00;;;1.20
33267;BMP180;19638;49.080;11.896;2024-01-15T15:01:33;94709.00;;;1.10
33267;BMP180;19638;49.080;11.896;2024-01-15T15:05:37;94706.00;;;1.10
33267;BMP180;19638;49.080;11.896;2024-01-15T15:09:42;94712.00;;;1.10
33267;BMP180;19638;49.080;11.896;2024-01-15T15:13:45;94722.00;;;1.10
33267;BMP180;19638;49.080;11.896;2024-01-15T15:17:49;94734.00;;;1.10
33267;BMP180;19638;49.080;11.896;2024-01-15T15:21:52;94733.00;;;1.00
33267;BMP180;19638;49.080;11.896;2024-01-15T15:25:57;94737.00;;;1.00
33267;BMP180;19638;49.080;11.896;2024-01-15T15:30:00;94745.00;;;1.00
33267;BMP180;19638;49.080;11.896;2024-01-15T15:34:03;94744.00;;;1.00
33267;BMP180;19638;49.080;11.896;2024-01-15T15:38:08;94754.00;;;1.00
33267;BMP180;19638;49.080;11.896;2024-01-15T15:42:13;94756.00;;;1.00
33267;BMP180;19638;49.080;11.896;2024-01-15T15:46:16;94752.00;;;1.00
33267;BMP180;19638;49.080;11.896;2024-01-15T15:50:20;94761.00;;;0.90
33267;BMP180;19638;49.080;11.896;2024-01-15T15:54:24;94766.00;;;0.90
33267;BMP180;19638;49.080;11.896;2024-01-15T15:58:29;94751.00;;;0.90
33267;BMP180;19638;49.080;11.896;2024-01-15T16:02:32;94752.00;;;0.90
33267;BMP180;19638;49.080;11.896;2024-01-15T16:06:36;94765.00;;;0.90
33267;BMP180;19638;49.080;11.896;2024-01-15T16:10:39;94765.00;;;0.90
33267;BMP180;19638;49.080;11.896;2024-01-15T16:14:44;94773.00;;;0.90
33267;BMP180;19638;49.080;11.896;2024-01-15T16:18:47;94776.00;;;0.90
33267;BMP180;19638;49.080;11.896;2024-01-15T16:23:10;94779.00;;;0.90
33267;BMP180;19638;49.080;11.896;2024-01-15T16:27:35;94769.00;;;0.90
33267;BMP180;19638;49.080;11.896;2024-01-15T16:31:40;94789.00;;;0.90
33267;BMP180;19638;49.080;11.896;2024-01-15T16:35:43;94799.00;;;0.80
33267;BMP180;19638;49.080;11.896;2024-01-15T16:39:46;94803.00;;;0.80
33267;BMP180;19638;49.080;11.896;2024-01-15T16:43:49;94811.00;;;0.80
33267;BMP180;19638;49.080;11.896;2024-01-15T16:47:54;94808.00;;;0.80
33267;BMP180;19638;49.080;11.896;2024-01-15T16:51:57;94812.00;;;0.80
33267;BMP180;19638;49.080;11.896;2024-01-15T16:56:01;94827.00;;;0.80
33267;BMP180;19638;49.080;11.896;2024-01-15T17:00:07;94842.00;;;0.80
33267;BMP180;19638;49.080;11.896;2024-01-15T17:04:11;94852.00;;;0.70
33267;BMP180;19638;49.080;11.896;2024-01-15T17:08:15;94863.00;;;0.70
33267;BMP180;19638;49.080;11.896;2024-01-15T17:12:19;94872.00;;;0.70
33267;BMP180;19638;49.080;11.896;2024-01-15T17:16:23;94884.00;;;0.70
33267;BMP180;19638;49.080;11.896;2024-01-15T17:20:27;94891.00;;;0.60
33267;BMP180;19638;49.080;11.896;2024-01-15T17:24:31;94902.00;;;0.60
33267;BMP180;19638;49.080;11.896;2024-01-15T17:28:34;94908.00;;;0.70
33267;BMP180;19638;49.080;11.896;2024-01-15T17:32:37;94918.00;;;0.70
33267;BMP180;19638;49.080;11.896;2024-01-15T17:36:42;94924.00;;;0.70
33267;BMP180;19638;49.080;11.896;2024-01-15T17:40:45;94931.00;;;0.60
33267;BMP180;19638;49.080;11.896;2024-01-15T17:44:49;94931.00;;;0.70
33267;BMP180;19638;49.080;11.896;2024-01-15T17:48:53;94933.00;;;0.70
33267;BMP180;19638;49.080;11.896;2024-01-15T17:52:58;94936.00;;;0.70
33267;BMP180;19638;49.080;11.896;2024-01-15T17:57:02;94959.00;;;0.70
33267;BMP180;19638;49.080;11.896;2024-01-15T18:01:05;94949.00;;;0.70
33267;BMP180;19638;49.080;11.896;2024-01-15T18:05:09;94955.00;;;0.70
33267;BMP180;19638;49.080;11.896;2024-01-15T18:09:14;94960.00;;;0.70
33267;BMP180;19638;49.080;11.896;2024-01-15T18:13:19;94958.00;;;0.60
33267;BMP180;19638;49.080;11.896;2024-01-15T18:17:22;94966.00;;;0.70
33267;BMP180;19638;49.080;11.896;2024-01-15T18:21:27;94968.00;;;0.60
33267;BMP180;19638;49.080;11.896;2024-01-15T18:25:32;94974.00;;;0.60
33267;BMP180;19638;49.080;11.896;2024-01-15T18:29:35;94982.00;;;0.60
33267;BMP180;19638;49.080;11.896;2024-01-15T18:33:39;94985.00;;;0.60
33267;BMP180;19638;49.080;11.896;2024-01-15T18:37:44;94977.00;;;0.60
33267;BMP180;19638;49.080;11.896;2024-01-15T18:41:49;94979.00;;;0.60
33267;BMP180;19638;49.080;11.896;2024-01-15T18:45:52;94979.00;;;0.50
33267;BMP180;19638;49.080;11.896;2024-01-15T18:49:55;94987.00;;;0.50
33267;BMP180;19638;49.080;11.896;2024-01-15T18:53:58;94999.00;;;0.40
33267;BMP180;19638;49.080;11.896;2024-01-15T18:58:03;94996.00;;;0.40
33267;BMP180;19638;49.080;11.896;2024-01-15T19:02:07;94995.00;;;0.40
33267;BMP180;19638;49.080;11.896;2024-01-15T19:06:10;95002.00;;;0.40
33267;BMP180;19638;49.080;11.896;2024-01-15T19:10:15;94996.00;;;0.40
33267;BMP180;19638;49.080;11.896;2024-01-15T19:14:20;94993.00;;;0.30
33267;BMP180;19638;49.080;11.896;2024-01-15T19:18:23;95004.00;;;0.30
33267;BMP180;19638;49.080;11.896;2024-01-15T19:22:28;95007.00;;;0.30
33267;BMP180;19638;49.080;11.896;2024-01-15T19:26:31;95002.00;;;0.30
33267;BMP180;19638;49.080;11.896;2024-01-15T19:30:35;95008.00;;;0.30
33267;BMP180;19638;49.080;11.896;2024-01-15T19:34:40;95032.00;;;0.30
33267;BMP180;19638;49.080;11.896;2024-01-15T19:38:43;95015.00;;;0.30
33267;BMP180;19638;49.080;11.896;2024-01-15T19:42:46;95024.00;;;0.30
33267;BMP180;19638;49.080;11.896;2024-01-15T19:46:51;95025.00;;;0.30
33267;BMP180;19638;49.080;11.896;2024-01-15T19:50:54;95040.00;;;0.30
33267;BMP180;19638;49.080;11.896;2024-01-15T19:54:58;95042.00;;;0.30
33267;BMP180;19638;49.080;11.896;2024-01-15T19:59:01;95057.00;;;0.30
33267;BMP180;19638;49.080;11.896;2024-01-15T20:03:08;95064.00;;;0.40
33267;BMP180;19638;49.080;11.896;2024-01-15T20:07:11;95073.00;;;0.30
33267;BMP180;19638;49.080;11.896;2024-01-15T20:11:14;95075.00;;;0.40
33267;BMP180;19638;49.080;11.896;2024-01-15T20:15:18;95074.00;;;0.40
33267;BMP180;19638;49.080;11.896;2024-01-15T20:19:22;95088.00;;;0.30
33267;BMP180;19638;49.080;11.896;2024-01-15T20:23:26;95085.00;;;0.30
33267;BMP180;19638;49.080;11.896;2024-01-15T20:27:29;95092.00;;;0.30
33267;BMP180;19638;49.080;11.896;2024-01-15T20:31:32;95106.00;;;0.30
33267;BMP180;19638;49.080;11.896;2024-01-15T20:35:38;95112.00;;;0.30
33267;BMP180;19638;49.080;11.896;2024-01-15T20:39:41;95119.00;;;0.30
33267;BMP180;19638;49.080;11.896;2024-01-15T20:43:44;95112.00;;;0.30
33267;BMP180;19638;49.080;11.896;2024-01-15T20:47:47;95125.00;;;0.30
33267;BMP180;19638;49.080;11.896;2024-01-15T20:51:52;95131.00;;;0.30
33267;BMP180;19638;49.080;11.896;2024-01-15T20:55:55;95126.00;;;0.30
33267;BMP180;19638;49.080;11.896;2024-01-15T20:59:58;95131.00;;;0.20
33267;BMP180;19638;49.080;11.896;2024-01-15T21:04:02;95146.00;;;0.30
33267;BMP180;19638;49.080;11.896;2024-01-15T21:08:06;95147.00;;;0.20
33267;BMP180;19638;49.080;11.896;2024-01-15T21:12:10;95149.00;;;0.20
33267;BMP180;19638;49.080;11.896;2024-01-15T21:16:13;95154.00;;;0.20
33267;BMP180;19638;49.080;11.896;2024-01-15T21:20:16;95152.00;;;0.20
33267;BMP180;19638;49.080;11.896;2024-01-15T21:24:21;95150.00;;;0.20
33267;BMP180;19638;49.080;11.896;2024-01-15T21:28:29;95150.00;;;0.20
33267;BMP180;19638;49.080;11.896;2024-01-15T21:32:32;95169.00;;;0.20
33267;BMP180;19638;49.080;11.896;2024-01-15T21:36:36;95162.00;;;0.20
33267;BMP180;19638;49.080;11.896;2024-01-15T21:40:41;95167.00;;;0.20
33267;BMP180;19638;49.080;11.896;2024-01-15T21:44:44;95171.00;;;0.20
33267;BMP180;19638;49.080;11.896;2024-01-15T21:48:47;95181.00;;;0.20
33267;BMP180;19638;49.080;11.896;2024-01-15T21:52:52;95177.00;;;0.20
33267;BMP180;19638;49.080;11.896;2024-01-15T21:56:56;95198.00;;;0.30
33267;BMP180;19638;49.080;11.896;2024-01-15T22:01:00;95202.00;;;0.20
33267;BMP180;19638;49.080;11.896;2024-01-15T22:05:04;95208.00;;;0.20
33267;BMP180;19638;49.080;11.896;2024-01-15T22:09:07;95215.00;;;0.20
33267;BMP180;19638;49.080;11.896;2024-01-15T22:13:12;95210.00;;;0.20
33267;BMP180;19638;49.080;11.896;2024-01-15T22:17:15;95216.00;;;0.20
33267;BMP180;19638;49.080;11.896;2024-01-15T22:21:18;95221.00;;;0.20
33267;BMP180;19638;49.080;11.896;2024-01-15T22:25:21;95225.00;;;0.20
33267;BMP180;19638;49.080;11.896;2024-01-15T22:29:25;95232.00;;;0.20
33267;BMP180;19638;49.080;11.896;2024-01-15T22:33:28;95234.00;;;0.20
33267;BMP180;19638;49.080;11.896;2024-01-15T22:37:32;95232.00;;;0.20
33267;BMP180;19638;49.080;11.896;2024-01-15T22:41:36;95235.00;;;0.20
33267;BMP180;19638;49.080;11.896;2024-01-15T22:45:40;95232.00;;;0.20
33267;BMP180;19638;49.080;11.896;2024-01-15T22:49:44;95232.00;;;0.20
33267;BMP180;19638;49.080;11.896;2024-01-15T22:53:47;95221.00;;;0.20
33267;BMP180;19638;49.080;11.896;2024-01-15T22:57:52;95229.00;;;0.20
33267;BMP180;19638;49.080;11.896;2024-01-15T23:01:56;95236.00;;;0.10
33267;BMP180;19638;49.080;11.896;2024-01-15T23:05:59;95233.00;;;0.10
33267;BMP180;19638;49.080;11.896;2024-01-15T23:10:05;95228.00;;;0.10
33267;BMP180;19638;49.080;11.896;2024-01-15T23:14:08;95233.00;;;0.10
33267;BMP180;19638;49.080;11.896;2024-01-15T23:18:13;95248.00;;;0.10
33267;BMP180;19638;49.080;11.896;2024-01-15T23:22:16;95247.00;;;0.00